createdAt,value
2018-07-27T00:01:40.154Z,66.84
2018-07-27T00:04:10.094Z,68.10
2018-07-27T00:06:39.477Z,67.57
2018-07-27T00:09:12.762Z,67.41
2018-07-27T00:11:43.366Z,67.83
2018-07-27T00:14:13.117Z,67.77
2018-07-27T00:16:42.901Z,67.61
2018-07-27T00:19:12.569Z,67.90
2018-07-27T00:21:42.372Z,67.74
2018-07-27T00:24:12.076Z,67.25
2018-07-27T00:26:41.799Z,68.79
2018-07-27T00:29:11.804Z,67.36
2018-07-27T00:31:41.706Z,66.42
2018-07-27T00:34:11.413Z,67.28
2018-07-27T00:36:41.441Z,67.09
2018-07-27T00:39:11.675Z,67.60
2018-07-27T00:41:41.419Z,68.06
2018-07-27T00:44:11.189Z,66.86
2018-07-27T00:46:40.928Z,66.95
2018-07-27T00:49:10.646Z,66.93
2018-07-27T00:51:40.445Z,67.00
2018-07-27T00:54:10.121Z,66.20
2018-07-27T00:56:39.821Z,67.89
2018-07-27T00:59:09.658Z,66.97
2018-07-27T01:01:39.414Z,67.11
2018-07-27T01:04:09.298Z,67.05
2018-07-27T01:06:39.095Z,67.22
2018-07-27T01:09:10.725Z,67.64
2018-07-27T01:11:40.516Z,66.06
2018-07-27T01:14:10.261Z,68.81
2018-07-27T01:16:40.221Z,65.49
2018-07-27T01:19:09.864Z,67.08
2018-07-27T01:21:39.560Z,67.47
2018-07-27T01:24:09.284Z,66.53
2018-07-27T01:26:39.034Z,67.49
2018-07-27T01:29:08.769Z,67.12
2018-07-27T01:31:38.489Z,67.10
2018-07-27T01:34:08.177Z,67.93
2018-07-27T01:36:38.024Z,68.61
2018-07-27T01:39:13.738Z,68.38
2018-07-27T01:41:44.042Z,68.77
2018-07-27T01:44:13.717Z,67.97
2018-07-27T01:46:43.464Z,67.73
2018-07-27T01:49:13.148Z,67.72
2018-07-27T01:51:43.075Z,68.28
2018-07-27T01:54:12.966Z,67.08
2018-07-27T01:56:42.674Z,66.73
2018-07-27T01:59:12.466Z,66.27
2018-07-27T02:01:42.228Z,66.50
2018-07-27T02:04:11.876Z,66.33
2018-07-27T02:06:41.668Z,65.39
2018-07-27T02:09:11.347Z,66.21
2018-07-27T02:11:41.105Z,65.92
2018-07-27T02:14:10.819Z,66.77
2018-07-27T02:16:40.553Z,65.86
2018-07-27T02:19:10.238Z,66.91
2018-07-27T02:21:39.933Z,67.58
2018-07-27T02:24:09.734Z,66.83
2018-07-27T02:26:39.381Z,66.42
2018-07-27T02:29:09.058Z,67.46
2018-07-27T02:31:38.815Z,67.67
2018-07-27T02:34:08.489Z,68.00
2018-07-27T02:36:38.202Z,68.61
2018-07-27T02:39:10.427Z,69.33
2018-07-27T02:41:40.219Z,69.94
2018-07-27T02:44:10.277Z,70.06
2018-07-27T02:46:39.949Z,69.46
2018-07-27T02:49:09.655Z,69.28
2018-07-27T02:51:39.387Z,68.23
2018-07-27T02:54:09.063Z,68.50
2018-07-27T02:56:38.803Z,68.00
2018-07-27T02:59:08.437Z,68.85
2018-07-27T03:01:38.107Z,69.58
2018-07-27T03:04:07.914Z,69.62
2018-07-27T03:06:37.676Z,70.50
2018-07-27T03:09:10.522Z,70.47
2018-07-27T03:11:40.721Z,70.29
2018-07-27T03:14:10.576Z,71.30
2018-07-27T03:16:40.394Z,70.36
2018-07-27T03:19:10.305Z,70.55
2018-07-27T03:21:40.009Z,70.98
2018-07-27T03:24:09.749Z,72.19
2018-07-27T03:26:39.461Z,71.71
2018-07-27T03:29:09.140Z,70.49
2018-07-27T03:31:38.885Z,72.55
2018-07-27T03:34:08.705Z,71.23
2018-07-27T03:36:38.544Z,70.33
2018-07-27T03:39:10.861Z,70.19
2018-07-27T03:41:41.303Z,69.86
2018-07-27T03:44:10.948Z,69.68
2018-07-27T03:46:41.448Z,69.74
2018-07-27T03:49:11.160Z,71.22
2018-07-27T03:51:40.921Z,71.29
2018-07-27T03:54:10.634Z,69.53
2018-07-27T03:56:40.325Z,69.35
2018-07-27T03:59:10.030Z,68.99
2018-07-27T04:01:39.969Z,69.46
2018-07-27T04:04:09.649Z,70.29
2018-07-27T04:06:39.913Z,70.67
2018-07-27T04:09:10.369Z,70.00
2018-07-27T04:11:40.330Z,70.95
2018-07-27T04:14:10.323Z,69.93
2018-07-27T04:16:39.981Z,69.98
2018-07-27T04:19:09.667Z,69.79
2018-07-27T04:21:40.083Z,70.67
2018-07-27T04:24:09.825Z,69.83
2018-07-27T04:26:39.454Z,70.38
2018-07-27T04:29:09.223Z,70.06
2018-07-27T04:31:38.935Z,69.43
2018-07-27T04:34:08.778Z,70.66
2018-07-27T04:36:38.489Z,67.95
2018-07-27T04:39:10.964Z,68.50
2018-07-27T04:41:40.646Z,67.42
2018-07-27T04:44:10.393Z,65.57
2018-07-27T04:46:40.225Z,65.42
2018-07-27T04:49:09.898Z,64.99
2018-07-27T04:51:39.659Z,64.46
2018-07-27T04:54:09.304Z,62.99
2018-07-27T04:56:39.086Z,62.38
2018-07-27T04:59:09.336Z,61.50
2018-07-27T05:01:39.114Z,61.64
2018-07-27T05:04:08.808Z,60.55
2018-07-27T05:06:38.565Z,58.77
2018-07-27T05:09:14.073Z,59.91
2018-07-27T05:11:43.976Z,59.20
2018-07-27T05:14:13.760Z,59.30
2018-07-27T05:16:43.466Z,57.89
2018-07-27T05:19:13.189Z,57.47
2018-07-27T05:21:42.712Z,58.48
2018-07-27T05:24:12.436Z,56.86
2018-07-27T05:26:42.161Z,55.89
2018-07-27T05:29:11.790Z,56.13
2018-07-27T05:31:41.506Z,56.17
2018-07-27T05:34:11.319Z,55.42
2018-07-27T05:36:41.025Z,55.27
2018-07-27T05:39:12.258Z,54.67
2018-07-27T05:41:41.968Z,55.09
2018-07-27T05:44:11.685Z,54.60
2018-07-27T05:46:41.412Z,54.71
2018-07-27T05:49:11.074Z,53.63
2018-07-27T05:51:41.923Z,53.93
2018-07-27T05:54:12.649Z,54.94
2018-07-27T05:56:42.408Z,54.75
2018-07-27T05:59:12.077Z,55.20
2018-07-27T06:01:41.423Z,53.74
2018-07-27T06:04:12.130Z,49.91
2018-07-27T06:06:41.936Z,49.46
2018-07-27T06:09:11.959Z,50.50
2018-07-27T06:11:41.719Z,51.18
2018-07-27T06:14:12.790Z,49.12
2018-07-27T06:16:42.553Z,52.04
2018-07-27T06:19:12.279Z,47.82
2018-07-27T06:21:41.919Z,47.54
2018-07-27T06:24:11.646Z,48.21
2018-07-27T06:26:41.312Z,49.21
2018-07-27T06:29:11.052Z,48.23
2018-07-27T06:31:40.703Z,48.96
2018-07-27T06:34:10.426Z,47.20
2018-07-27T06:36:40.129Z,47.90
2018-07-27T06:39:11.730Z,44.78
2018-07-27T06:41:41.872Z,46.32
2018-07-27T06:44:11.669Z,45.04
2018-07-27T06:46:44.226Z,44.48
2018-07-27T06:49:13.558Z,43.71
2018-07-27T06:51:43.197Z,42.37
2018-07-27T06:54:12.876Z,41.17
2018-07-27T06:56:42.509Z,41.56
2018-07-27T06:59:12.595Z,38.49
2018-07-27T07:01:43.467Z,38.11
2018-07-27T07:04:13.613Z,39.02
2018-07-27T07:06:43.709Z,39.90
2018-07-27T07:09:13.708Z,37.10
2018-07-27T07:11:43.338Z,39.03
2018-07-27T07:14:13.104Z,37.58
2018-07-27T07:16:42.863Z,36.10
2018-07-27T07:19:12.712Z,35.86
2018-07-27T07:21:42.451Z,35.00
2018-07-27T07:24:12.241Z,33.77
2018-07-27T07:26:42.026Z,33.97
2018-07-27T07:29:11.780Z,33.68
2018-07-27T07:31:41.613Z,30.83
2018-07-27T07:34:11.372Z,31.38
2018-07-27T07:36:41.104Z,31.14
2018-07-27T07:39:12.545Z,28.34
2018-07-27T07:41:42.868Z,28.73
2018-07-27T07:44:12.536Z,27.06
2018-07-27T07:46:42.256Z,26.99
2018-07-27T07:49:11.964Z,26.34
2018-07-27T07:51:41.650Z,26.38
2018-07-27T07:54:11.329Z,25.29
2018-07-27T07:56:41.096Z,25.29
2018-07-27T07:59:10.430Z,25.92
2018-07-27T08:01:40.077Z,23.34
2018-07-27T08:04:09.797Z,25.01
2018-07-27T08:06:39.495Z,24.23
2018-07-27T08:09:10.415Z,24.87
2018-07-27T08:11:40.051Z,24.24
2018-07-27T08:14:09.745Z,24.87
2018-07-27T08:16:39.436Z,24.67
2018-07-27T08:19:09.133Z,23.26
2018-07-27T08:21:38.786Z,22.87
2018-07-27T08:24:08.553Z,22.83
2018-07-27T08:26:54.013Z,23.58
2018-07-27T08:29:25.211Z,22.44
2018-07-27T08:31:55.549Z,23.07
2018-07-27T08:34:25.276Z,23.17
2018-07-27T08:36:54.977Z,22.95
2018-07-27T08:39:29.901Z,22.47
2018-07-27T08:41:59.693Z,21.51
2018-07-27T08:44:30.632Z,22.29
2018-07-27T08:47:00.477Z,23.09
2018-07-27T08:49:31.181Z,22.90
2018-07-27T08:52:00.983Z,23.17
2018-07-27T08:54:31.135Z,23.39
2018-07-27T08:57:00.861Z,23.25
2018-07-27T08:59:30.616Z,23.22
2018-07-27T09:02:00.623Z,22.25
2018-07-27T09:04:30.641Z,23.27
2018-07-27T09:07:00.683Z,22.61
2018-07-27T09:09:30.404Z,20.05
2018-07-27T09:12:00.171Z,20.44
2018-07-27T09:14:29.981Z,20.20
2018-07-27T09:16:59.667Z,20.70
2018-07-27T09:19:29.381Z,19.30
2018-07-27T09:21:59.154Z,20.00
2018-07-27T09:24:28.947Z,20.62
2018-07-27T09:26:58.498Z,21.05
2018-07-27T09:29:28.189Z,20.36
2018-07-27T09:31:57.953Z,19.92
2018-07-27T09:34:27.686Z,18.63
2018-07-27T09:36:57.346Z,19.30
2018-07-27T09:39:27.048Z,18.77
2018-07-27T09:41:56.693Z,19.14
2018-07-27T09:44:26.458Z,19.42
2018-07-27T09:46:56.112Z,18.68
2018-07-27T09:49:25.804Z,18.91
2018-07-27T09:51:55.545Z,19.18
2018-07-27T09:54:25.298Z,18.87
2018-07-27T09:56:55.116Z,18.31
2018-07-27T09:59:24.811Z,17.29
2018-07-27T10:01:54.456Z,16.85
2018-07-27T10:04:24.077Z,17.65
2018-07-27T10:06:53.826Z,18.24
2018-07-27T10:09:23.529Z,18.32
2018-07-27T10:11:53.218Z,19.13
2018-07-27T10:14:22.958Z,18.84
2018-07-27T10:16:52.640Z,18.05
2018-07-27T10:19:22.297Z,17.55
2018-07-27T10:21:52.147Z,18.34
2018-07-27T10:24:21.821Z,19.05
2018-07-27T10:26:51.558Z,17.96
2018-07-27T10:29:21.232Z,18.29
2018-07-27T10:31:50.910Z,18.53
2018-07-27T10:34:20.852Z,18.09
2018-07-27T10:36:51.353Z,17.75
2018-07-27T10:39:21.121Z,18.43
2018-07-27T10:41:50.765Z,17.37
2018-07-27T10:44:20.593Z,16.35
2018-07-27T10:46:50.222Z,17.17
2018-07-27T10:49:19.917Z,17.49
2018-07-27T10:51:49.646Z,17.04
2018-07-27T10:54:19.361Z,17.36
2018-07-27T10:56:49.216Z,17.21
2018-07-27T10:59:18.894Z,17.88
2018-07-27T11:01:48.648Z,18.00
2018-07-27T11:04:18.431Z,18.04
2018-07-27T11:06:48.237Z,16.75
2018-07-27T11:09:17.927Z,17.65
2018-07-27T11:11:47.698Z,17.45
2018-07-27T11:14:17.590Z,17.79
2018-07-27T11:16:47.342Z,16.07
2018-07-27T11:19:17.121Z,16.26
2018-07-27T11:21:47.837Z,17.37
2018-07-27T11:24:17.685Z,17.28
2018-07-27T11:26:47.456Z,16.80
2018-07-27T11:29:17.185Z,18.10
2018-07-27T11:31:47.496Z,18.90
2018-07-27T11:34:17.177Z,17.45
2018-07-27T11:36:46.890Z,17.88
2018-07-27T11:39:16.717Z,18.82
2018-07-27T11:41:47.484Z,18.11
2018-07-27T11:44:17.250Z,16.57
2018-07-27T11:46:46.925Z,16.82
2018-07-27T11:49:16.707Z,16.72
2018-07-27T11:51:46.471Z,16.93
2018-07-27T11:54:16.149Z,16.42
2018-07-27T11:56:45.822Z,17.37
2018-07-27T11:59:15.517Z,16.92
2018-07-27T12:01:45.194Z,16.51
2018-07-27T12:04:14.931Z,17.93
2018-07-27T12:06:44.591Z,17.06
2018-07-27T12:09:14.302Z,16.96
2018-07-27T12:11:44.015Z,17.46
2018-07-27T12:14:13.540Z,17.45
2018-07-27T12:16:43.035Z,17.93
2018-07-27T12:19:12.985Z,16.95
2018-07-27T12:21:42.908Z,16.78
2018-07-27T12:24:12.426Z,18.04
2018-07-27T12:26:42.117Z,17.92
2018-07-27T12:29:11.787Z,18.73
2018-07-27T12:31:41.458Z,18.16
2018-07-27T12:34:11.628Z,17.92
2018-07-27T12:36:41.668Z,15.91
2018-07-27T12:39:12.509Z,17.37
2018-07-27T12:41:42.734Z,17.34
2018-07-27T12:44:12.570Z,17.90
2018-07-27T12:46:42.299Z,16.75
2018-07-27T12:49:12.177Z,17.83
2018-07-27T12:51:41.938Z,16.87
2018-07-27T12:54:11.772Z,17.17
2018-07-27T12:56:41.501Z,17.50
2018-07-27T12:59:11.305Z,17.18
2018-07-27T13:01:41.003Z,16.88
2018-07-27T13:04:10.779Z,17.20
2018-07-27T13:06:40.687Z,17.45
2018-07-27T13:09:11.952Z,16.84
2018-07-27T13:11:41.621Z,16.42
2018-07-27T13:14:11.323Z,17.09
2018-07-27T13:16:41.277Z,17.24
2018-07-27T13:19:13.931Z,16.67
2018-07-27T13:21:43.894Z,15.90
2018-07-27T13:24:13.609Z,16.41
2018-07-27T13:26:43.398Z,15.66
2018-07-27T13:29:13.057Z,15.79
2018-07-27T13:31:49.454Z,15.59
2018-07-27T13:34:44.990Z,16.36
2018-07-27T13:37:15.109Z,15.50
2018-07-27T13:39:45.562Z,16.83
2018-07-27T13:42:18.539Z,16.73
2018-07-27T13:44:48.393Z,16.44
2018-07-27T13:47:18.757Z,15.95
2018-07-27T13:49:48.596Z,15.30
2018-07-27T13:52:18.381Z,15.92
2018-07-27T13:54:48.181Z,15.15
2018-07-27T13:57:17.978Z,15.66
2018-07-27T13:59:47.713Z,15.73
2018-07-27T14:02:17.496Z,15.93
2018-07-27T14:04:47.216Z,15.23
2018-07-27T14:07:17.067Z,15.73
2018-07-27T14:09:46.789Z,15.63
2018-07-27T14:12:16.537Z,15.54
2018-07-27T14:14:46.214Z,16.05
2018-07-27T14:17:15.902Z,16.54
2018-07-27T14:19:45.584Z,15.54
2018-07-27T14:22:15.277Z,15.36
2018-07-27T14:24:44.994Z,15.29
2018-07-27T14:27:14.731Z,14.19
2018-07-27T14:29:44.465Z,14.77
2018-07-27T14:32:14.181Z,15.47
2018-07-27T14:34:43.925Z,14.01
2018-07-27T14:37:13.691Z,13.66
2018-07-27T14:39:43.499Z,14.34
2018-07-27T14:42:13.167Z,14.70
2018-07-27T14:44:42.849Z,14.15
2018-07-27T14:47:12.607Z,15.59
2018-07-27T14:49:42.309Z,15.43
2018-07-27T14:52:12.024Z,15.19
2018-07-27T14:54:41.983Z,15.19
2018-07-27T14:57:11.670Z,14.88
2018-07-27T14:59:41.402Z,15.10
2018-07-27T15:02:11.251Z,14.80
2018-07-27T15:04:42.018Z,16.67
2018-07-27T15:07:11.889Z,16.20
2018-07-27T15:09:41.637Z,16.52
2018-07-27T15:12:11.998Z,16.04
2018-07-27T15:14:41.820Z,17.26
2018-07-27T15:17:11.775Z,15.74
2018-07-27T15:19:41.664Z,16.49
2018-07-27T15:22:11.665Z,16.91
2018-07-27T15:24:41.566Z,16.89
2018-07-27T15:27:12.255Z,17.23
2018-07-27T15:29:42.030Z,17.30
2018-07-27T15:32:12.417Z,17.83
2018-07-27T15:34:42.182Z,16.73
2018-07-27T15:37:12.001Z,17.64
2018-07-27T15:39:41.645Z,17.16
2018-07-27T15:42:11.580Z,17.65
2018-07-27T15:44:42.071Z,17.85
2018-07-27T15:47:11.977Z,18.69
2018-07-27T15:49:42.835Z,17.62
2018-07-27T15:52:12.649Z,18.38
2018-07-27T15:54:42.310Z,18.27
2018-07-27T15:57:11.992Z,17.46
2018-07-27T15:59:41.978Z,18.66
2018-07-27T16:02:12.325Z,18.01
2018-07-27T16:04:42.484Z,17.94
2018-07-27T16:07:12.433Z,18.05
2018-07-27T16:09:42.585Z,17.42
2018-07-27T16:12:12.278Z,17.54
2018-07-27T16:14:42.269Z,18.64
2018-07-27T16:17:12.418Z,18.64
2018-07-27T16:19:42.359Z,19.31
2018-07-27T16:22:12.445Z,18.87
2018-07-27T16:24:41.857Z,18.87
2018-07-27T16:27:11.790Z,18.28
2018-07-27T16:29:41.821Z,18.47
2018-07-27T16:32:11.948Z,19.06
2018-07-27T16:34:42.066Z,19.23
2018-07-27T16:37:12.004Z,19.85
2018-07-27T16:39:41.828Z,20.14
2018-07-27T16:42:11.591Z,18.16
2018-07-27T16:44:41.540Z,18.77
2018-07-27T16:47:11.501Z,19.25
2018-07-27T16:49:44.278Z,19.69
2018-07-27T16:52:14.983Z,20.01
2018-07-27T16:54:44.786Z,20.71
2018-07-27T16:57:15.335Z,20.63
2018-07-27T16:59:45.269Z,21.50
2018-07-27T17:02:14.686Z,22.25
2018-07-27T17:04:44.683Z,21.43
2018-07-27T17:07:14.687Z,22.71
2018-07-27T17:09:46.017Z,22.46
2018-07-27T17:12:15.985Z,23.05
2018-07-27T17:14:46.262Z,21.77
2018-07-27T17:17:16.345Z,22.51
2018-07-27T17:19:46.206Z,21.85
2018-07-27T17:22:15.937Z,23.37
2018-07-27T17:24:45.669Z,22.61
2018-07-27T17:27:15.333Z,22.25
2018-07-27T17:29:44.771Z,23.16
2018-07-27T17:32:14.531Z,22.64
2018-07-27T17:34:45.006Z,23.26
2018-07-27T17:37:14.952Z,23.74
2018-07-27T17:39:44.606Z,23.53
2018-07-27T17:42:13.980Z,22.66
2018-07-27T17:44:43.671Z,23.13
2018-07-27T17:47:13.422Z,22.65
2018-07-27T17:49:43.625Z,22.54
2018-07-27T17:52:13.390Z,23.56
2018-07-27T17:54:42.774Z,23.92
2018-07-27T17:57:12.479Z,23.48
2018-07-27T17:59:42.230Z,23.31
2018-07-27T18:02:11.967Z,24.65
2018-07-27T18:04:41.650Z,24.04
2018-07-27T18:07:11.499Z,23.87
2018-07-27T18:09:41.290Z,24.31
2018-07-27T18:12:11.023Z,24.61
2018-07-27T18:14:40.758Z,25.38
2018-07-27T18:17:10.448Z,24.06
2018-07-27T18:19:40.099Z,24.12
2018-07-27T18:22:09.941Z,24.79
2018-07-27T18:24:39.679Z,23.86
2018-07-27T18:27:09.479Z,24.53
2018-07-27T18:29:39.597Z,23.94
2018-07-27T18:32:08.971Z,23.69
2018-07-27T18:34:38.645Z,24.28
2018-07-27T18:37:08.540Z,23.99
2018-07-27T18:39:37.940Z,25.84
2018-07-27T18:42:07.681Z,25.24
2018-07-27T18:44:37.427Z,26.66
2018-07-27T18:47:07.231Z,25.79
2018-07-27T18:49:36.971Z,26.55
2018-07-27T18:52:06.728Z,27.77
2018-07-27T18:54:36.425Z,26.37
2018-07-27T18:57:06.208Z,27.68
2018-07-27T18:59:35.891Z,27.61
2018-07-27T19:02:05.788Z,26.85
2018-07-27T19:04:35.489Z,28.36
2018-07-27T19:07:05.260Z,28.37
2018-07-27T19:09:34.975Z,30.48
2018-07-27T19:12:04.658Z,30.14
2018-07-27T19:14:34.389Z,30.58
2018-07-27T19:17:04.122Z,31.14
2018-07-27T19:19:33.777Z,29.39
2018-07-27T19:22:03.445Z,30.55
2018-07-27T19:24:33.126Z,31.06
2018-07-27T19:27:02.961Z,31.53
2018-07-27T19:29:32.623Z,31.68
2018-07-27T19:32:02.347Z,33.15
2018-07-27T19:34:32.046Z,33.14
2018-07-27T19:37:01.828Z,34.25
2018-07-27T19:39:31.622Z,34.37
2018-07-27T19:42:01.355Z,34.79
2018-07-27T19:44:31.025Z,35.21
2018-07-27T19:47:00.760Z,34.66
2018-07-27T19:49:30.637Z,35.73
2018-07-27T19:52:00.382Z,33.74
2018-07-27T19:54:30.142Z,34.10
2018-07-27T19:56:59.809Z,35.02
2018-07-27T19:59:29.527Z,35.90
2018-07-27T20:01:59.153Z,35.49
2018-07-27T20:04:28.839Z,37.01
2018-07-27T20:06:58.557Z,37.09
2018-07-27T20:09:28.420Z,36.37
2018-07-27T20:11:58.114Z,37.34
2018-07-27T20:14:27.942Z,36.74
2018-07-27T20:16:57.689Z,36.98
2018-07-27T20:19:27.500Z,37.53
2018-07-27T20:21:57.221Z,36.20
2018-07-27T20:24:27.029Z,37.97
2018-07-27T20:26:56.891Z,37.56
2018-07-27T20:29:26.577Z,38.15
2018-07-27T20:31:56.391Z,39.02
2018-07-27T20:34:26.085Z,38.63
2018-07-27T20:36:55.854Z,40.02
2018-07-27T20:39:25.565Z,40.40
2018-07-27T20:41:55.296Z,40.45
2018-07-27T20:44:25.145Z,40.83
2018-07-27T20:46:55.011Z,41.19
2018-07-27T20:49:24.760Z,40.23
2018-07-27T20:51:54.553Z,41.93
2018-07-27T20:54:24.352Z,41.86
2018-07-27T20:56:54.161Z,42.38
2018-07-27T20:59:23.975Z,41.89
2018-07-27T21:01:53.861Z,41.37
2018-07-27T21:04:23.672Z,42.10
2018-07-27T21:06:53.380Z,42.06
2018-07-27T21:09:23.198Z,43.79
2018-07-27T21:11:52.953Z,43.80
2018-07-27T21:14:22.714Z,43.37
2018-07-27T21:16:52.555Z,44.22
2018-07-27T21:19:22.275Z,44.28
2018-07-27T21:21:51.988Z,44.18
2018-07-27T21:24:21.965Z,44.17
2018-07-27T21:26:51.790Z,43.33
2018-07-27T21:29:21.553Z,43.86
2018-07-27T21:31:51.268Z,42.69
2018-07-27T21:34:22.886Z,43.42
2018-07-27T21:36:52.689Z,42.86
2018-07-27T21:39:22.443Z,41.91
2018-07-27T21:41:52.117Z,41.20
2018-07-27T21:44:21.864Z,40.54
2018-07-27T21:46:51.549Z,41.65
2018-07-27T21:49:21.240Z,42.06
2018-07-27T21:51:50.994Z,43.16
2018-07-27T21:54:20.758Z,42.84
2018-07-27T21:56:51.042Z,43.80
2018-07-27T21:59:20.942Z,44.23
2018-07-27T22:01:51.061Z,44.51
2018-07-27T22:04:20.917Z,45.48
2018-07-27T22:06:50.786Z,43.48
2018-07-27T22:09:20.576Z,42.52
2018-07-27T22:11:50.313Z,42.62
2018-07-27T22:14:20.086Z,42.04
2018-07-27T22:16:50.810Z,42.96
2018-07-27T22:19:20.482Z,42.84
2018-07-27T22:21:50.349Z,41.60
2018-07-27T22:24:20.217Z,42.77
2018-07-27T22:26:50.057Z,42.61
2018-07-27T22:29:19.778Z,42.18
2018-07-27T22:31:49.574Z,43.01
2018-07-27T22:34:19.996Z,43.29
2018-07-27T22:36:49.912Z,42.90
2018-07-27T22:39:19.673Z,43.02
2018-07-27T22:41:49.392Z,43.31
2018-07-27T22:44:19.193Z,43.07
2018-07-27T22:46:48.966Z,43.03
2018-07-27T22:49:18.697Z,43.67
2018-07-27T22:51:48.357Z,43.98
2018-07-27T22:54:18.112Z,44.82
2018-07-27T22:56:47.826Z,45.14
2018-07-27T22:59:17.511Z,44.72
2018-07-27T23:01:47.245Z,45.32
2018-07-27T23:04:17.139Z,44.46
2018-07-27T23:06:47.109Z,45.40
2018-07-27T23:09:16.924Z,44.37
2018-07-27T23:11:46.761Z,45.16
2018-07-27T23:14:16.589Z,46.02
2018-07-27T23:16:46.744Z,46.07
2018-07-27T23:19:16.485Z,45.68
2018-07-27T23:21:46.305Z,45.66
2018-07-27T23:24:16.059Z,46.01
2018-07-27T23:26:46.095Z,46.09
2018-07-27T23:29:15.738Z,46.24
2018-07-27T23:31:45.471Z,46.52
2018-07-27T23:34:16.207Z,47.13
2018-07-27T23:36:45.898Z,46.30
2018-07-27T23:39:15.550Z,46.22
2018-07-27T23:41:45.213Z,46.92
2018-07-27T23:44:14.945Z,46.42
2018-07-27T23:46:44.727Z,46.48
2018-07-27T23:49:14.533Z,47.13
2018-07-27T23:51:44.274Z,46.85
2018-07-27T23:54:14.098Z,47.50
2018-07-27T23:56:43.738Z,48.26
2018-07-27T23:59:13.512Z,48.11
